Nbp Island — V2FH3 — position and weather

sailwx.info

Track history (hours):
 
Tides and Currents Weather Stations Pressure Air Temp Water Temp Dewpoint Dewpoint Depression Visibility Wind Speed Wind Dir Waves Ship Positions

Nbp Island

Last reported at 2016-May-04 02:16 UTC. Time now 2016-May-06 13:04 UTC.
Position N 35°57' W 005°11'.

Length 107 m; draft 8.3 m.

Type: Cargo ship. MMSI: 305674000.

Date/timePositionNaut miles runAvg speedWind from/ knotsBaromVisibWave heightAir tempDewpointWater temp
2016-May-04 02:16N 35°57' W 005°11'7 9.3
2016-May-04 01:33N 35°59' W 005°18'9 8.9
2016-May-04 00:33N 35°57' W 005°29'217 5.9
2016-May-02 11:33N 37°16' W 009°41'1111.0
2016-May-02 10:33N 37°27' W 009°45'1111.0
2016-May-02 09:33N 37°38' W 009°48'1111.3
2016-May-02 08:33N 37°49' W 009°51'1111.2
2016-May-02 07:33N 37°60' W 009°54'1110.8
2016-May-02 06:33N 38°10' W 009°57'1010.5
2016-May-02 05:33N 38°20' W 010°00'1110.6
2016-May-02 04:33N 38°31' W 010°03'1110.7
2016-May-02 03:34N 38°41' W 010°06'  
2016-Apr-29 05:28N 49°44' W 003°34'8 9.2
2016-Apr-29 04:34N 49°48' W 003°23'11 9.1
2016-Apr-29 03:24N 49°54' W 003°09'7 8.5
2016-Apr-29 02:33N 49°57' W 002°59'8 7.8
2016-Apr-29 01:34N 49°60' W 002°48'88 8.8
2016-Apr-28 15:31N 50°25' W 000°36'1010.8
2016-Apr-28 14:34N 50°28' W 000°20'1010.3
2016-Apr-28 13:34N 50°31' W 000°05'10 9.5
2016-Apr-28 12:31N 50°33' E 000°10'9 9.1
2016-Apr-28 11:33N 50°36' E 000°23'3311.0
2016-Apr-28 08:34N 50°53' E 001°08'1212.1
2016-Apr-28 07:33N 51°01' E 001°22'1111.3
2016-Apr-28 06:34N 51°08' E 001°36'9 9.3
2016-Apr-28 05:33N 51°15' E 001°47'9 8.9
2016-Apr-28 04:33N 51°23' E 001°54'9 9.1
2016-Apr-28 03:33N 51°30' E 002°02'12810.5
2016-Apr-27 15:23N 53°07' E 004°19'5310.7
2016-Apr-27 10:25N 53°56' E 004°55'910.7
2016-Apr-27 09:33N 54°05' E 004°60'28410.4
2016-Apr-26 06:12N 57°46' E 010°18'710.5
2016-Apr-26 05:33N 57°48' E 010°31'10 9.8
2016-Apr-26 04:34N 57°47' E 010°49'1110.7
2016-Apr-26 03:33N 57°40' E 011°03'1111.0
2016-Apr-26 02:33N 57°32' E 011°18'1111.0
2016-Apr-26 01:34N 57°23' E 011°29'1111.1
2016-Apr-26 00:33N 57°12' E 011°36'1111.2
2016-Apr-25 23:33N 57°02' E 011°43'1110.7
2016-Apr-25 22:33N 56°52' E 011°50'10 9.8
2016-Apr-25 21:33N 56°42' E 011°51'8310.0
2016-Apr-25 13:16N 55°24' E 010°60'710.1
2016-Apr-25 12:33N 55°18' E 011°04'10 9.8
2016-Apr-25 11:33N 55°08' E 011°03'1010.4
2016-Apr-25 10:34N 54°58' E 010°59'1010.4
2016-Apr-25 09:33N 54°48' E 010°53'1010.0
2016-Apr-25 08:33N 54°39' E 011°02'1010.2
2016-Apr-25 07:33N 54°34' E 011°17'1111.4
2016-Apr-25 06:33N 54°30' E 011°35'1010.2
2016-Apr-25 05:33N 54°26' E 011°51'1010.4
2016-Apr-25 04:33N 54°27' E 012°09'19 9.6
2016-Apr-25 02:33N 54°42' E 012°29'4210.4
2016-Apr-24 22:32N 54°58' E 013°36'1110.7
2016-Apr-24 21:33N 55°02' E 013°53'1010.1
2016-Apr-24 20:33N 55°08' E 014°08'1110.8
2016-Apr-24 19:33N 55°16' E 014°20'1111.1
2016-Apr-24 18:33N 55°24' E 014°33'1110.7
2016-Apr-24 17:33N 55°30' E 014°49'1010.5
2016-Apr-24 16:33N 55°36' E 015°05'  
Track history (hours):
 
Tides and Currents Weather Stations Pressure Air Temp Water Temp Dewpoint Dewpoint Depression Visibility Wind Speed Wind Dir Waves Ship Positions

Nbp Island

Last reported at 2016-May-04 02:16 UTC. Time now 2016-May-06 13:04 UTC.
Position N 35°57' W 005°11'.

Length 107 m; draft 8.3 m.

Type: Cargo ship. MMSI: 305674000.

Date/timePositionNaut miles runAvg speedWind from/ knotsBaromVisibWave heightAir tempDewpointWater temp
2016-May-04 02:16N 35°57' W 005°11'7 9.3
2016-May-04 01:33N 35°59' W 005°18'9 8.9
2016-May-04 00:33N 35°57' W 005°29'217 5.9
2016-May-02 11:33N 37°16' W 009°41'1111.0
2016-May-02 10:33N 37°27' W 009°45'1111.0
2016-May-02 09:33N 37°38' W 009°48'1111.3
2016-May-02 08:33N 37°49' W 009°51'1111.2
2016-May-02 07:33N 37°60' W 009°54'1110.8
2016-May-02 06:33N 38°10' W 009°57'1010.5
2016-May-02 05:33N 38°20' W 010°00'1110.6
2016-May-02 04:33N 38°31' W 010°03'1110.7
2016-May-02 03:34N 38°41' W 010°06'  
2016-Apr-29 05:28N 49°44' W 003°34'8 9.2
2016-Apr-29 04:34N 49°48' W 003°23'11 9.1
2016-Apr-29 03:24N 49°54' W 003°09'7 8.5
2016-Apr-29 02:33N 49°57' W 002°59'8 7.8
2016-Apr-29 01:34N 49°60' W 002°48'88 8.8
2016-Apr-28 15:31N 50°25' W 000°36'1010.8
2016-Apr-28 14:34N 50°28' W 000°20'1010.3
2016-Apr-28 13:34N 50°31' W 000°05'10 9.5
2016-Apr-28 12:31N 50°33' E 000°10'9 9.1
2016-Apr-28 11:33N 50°36' E 000°23'3311.0
2016-Apr-28 08:34N 50°53' E 001°08'1212.1
2016-Apr-28 07:33N 51°01' E 001°22'1111.3
2016-Apr-28 06:34N 51°08' E 001°36'9 9.3
2016-Apr-28 05:33N 51°15' E 001°47'9 8.9
2016-Apr-28 04:33N 51°23' E 001°54'9 9.1
2016-Apr-28 03:33N 51°30' E 002°02'12810.5
2016-Apr-27 15:23N 53°07' E 004°19'5310.7
2016-Apr-27 10:25N 53°56' E 004°55'910.7
2016-Apr-27 09:33N 54°05' E 004°60'28410.4
2016-Apr-26 06:12N 57°46' E 010°18'710.5
2016-Apr-26 05:33N 57°48' E 010°31'10 9.8
2016-Apr-26 04:34N 57°47' E 010°49'1110.7
2016-Apr-26 03:33N 57°40' E 011°03'1111.0
2016-Apr-26 02:33N 57°32' E 011°18'1111.0
2016-Apr-26 01:34N 57°23' E 011°29'1111.1
2016-Apr-26 00:33N 57°12' E 011°36'1111.2
2016-Apr-25 23:33N 57°02' E 011°43'1110.7
2016-Apr-25 22:33N 56°52' E 011°50'10 9.8
2016-Apr-25 21:33N 56°42' E 011°51'8310.0
2016-Apr-25 13:16N 55°24' E 010°60'710.1
2016-Apr-25 12:33N 55°18' E 011°04'10 9.8
2016-Apr-25 11:33N 55°08' E 011°03'1010.4
2016-Apr-25 10:34N 54°58' E 010°59'1010.4
2016-Apr-25 09:33N 54°48' E 010°53'1010.0
2016-Apr-25 08:33N 54°39' E 011°02'1010.2
2016-Apr-25 07:33N 54°34' E 011°17'1111.4
2016-Apr-25 06:33N 54°30' E 011°35'1010.2
2016-Apr-25 05:33N 54°26' E 011°51'1010.4
2016-Apr-25 04:33N 54°27' E 012°09'19 9.6
2016-Apr-25 02:33N 54°42' E 012°29'4210.4
2016-Apr-24 22:32N 54°58' E 013°36'1110.7
2016-Apr-24 21:33N 55°02' E 013°53'1010.1
2016-Apr-24 20:33N 55°08' E 014°08'1110.8
2016-Apr-24 19:33N 55°16' E 014°20'1111.1
2016-Apr-24 18:33N 55°24' E 014°33'1110.7
2016-Apr-24 17:33N 55°30' E 014°49'1010.5
2016-Apr-24 16:33N 55°36' E 015°05'  

Dump ship's entire track history